Time;durP1;ratioP1;P1;durP2;ratioP2;P2;SDS_P1;SDS_P2;PMS_P1;PMS_P2;Temp;Humidity;BMP_temperature;BMP_pressure;BME280_temperature;BME280_humidity;BME280_pressure;Samples;Min_cycle;Max_cycle;Signal;HPM_P1;HPM_P2
2022/01/24 00:01:26;;;;;;;16.92;10.00;;;;;;;5.39;78.25;103537.78;5052895;28;20108;-79
2022/01/24 00:03:56;;;;;;;18.17;10.32;;;;;;;5.41;78.33;103527.31;5052937;28;20036;-77
2022/01/24 00:06:23;;;;;;;18.40;10.20;;;;;;;5.42;78.56;103523.81;5052141;28;20025;-79
2022/01/24 00:08:49;;;;;;;18.10;9.68;;;;;;;5.41;78.19;103527.31;5052153;28;20111;-78
2022/01/24 00:11:18;;;;;;;16.02;10.23;;;;;;;5.40;78.29;103529.03;5052458;28;20108;-78
2022/01/24 00:16:31;;;;;;;16.70;10.20;;;;;;;5.36;80.37;103528.97;5045007;28;20048;-78
2022/01/24 00:26:53;;;;;;;15.30;10.30;;;;;;;5.38;79.63;103527.22;5052452;28;20055;-77
2022/01/24 00:29:21;;;;;;;18.40;10.50;;;;;;;5.37;80.93;103518.47;5052153;28;20036;-78
2022/01/24 00:31:46;;;;;;;17.88;10.70;;;;;;;5.32;81.95;103520.13;5052459;28;20029;-78
2022/01/24 00:34:13;;;;;;;19.13;11.48;;;;;;;5.31;83.18;103506.97;5052428;28;20025;-76
2022/01/24 00:36:39;;;;;;;18.27;11.40;;;;;;;5.25;83.84;103516.47;5051933;28;20103;-77
2022/01/24 00:39:06;;;;;;;18.50;11.52;;;;;;;5.21;84.47;103514.63;5051499;28;20025;-78
2022/01/24 00:41:39;;;;;;;19.27;11.32;;;;;;;5.19;84.91;103512.84;5051917;28;20021;-77
2022/01/24 00:47:01;;;;;;;17.58;11.02;;;;;;;5.15;85.59;103511.88;5052150;28;20052;-78
2022/01/24 00:54:47;;;;;;;23.65;10.93;;;;;;;5.12;84.83;103509.19;5052650;28;20036;-79
2022/01/24 00:57:13;;;;;;;17.20;10.57;;;;;;;5.15;83.62;103514.50;5051995;28;20391;-77
2022/01/24 00:59:39;;;;;;;22.02;11.32;;;;;;;5.15;84.71;103509.25;5051737;28;20111;-78
2022/01/24 01:02:06;;;;;;;18.60;11.68;;;;;;;5.18;84.15;103513.69;5035546;28;20497;-77
2022/01/24 01:04:44;;;;;;;18.60;11.23;;;;;;;5.19;83.90;103510.19;5032514;28;20048;-78
2022/01/24 01:07:09;;;;;;;18.65;10.95;;;;;;;5.23;83.26;103499.81;5036630;28;20061;-78
2022/01/24 01:18:11;;;;;;;18.92;11.82;;;;;;;5.12;85.58;103519.72;5055880;28;20412;-78
2022/01/24 01:20:57;;;;;;;22.80;12.13;;;;;;;5.12;84.41;103506.56;5055463;28;20021;-78
2022/01/24 01:23:22;;;;;;;25.45;14.07;;;;;;;5.15;82.44;103511.00;5055722;28;20037;-78
2022/01/24 01:25:49;;;;;;;27.30;14.90;;;;;;;5.22;81.48;103515.53;5056068;28;20032;-78
2022/01/24 01:28:15;;;;;;;26.77;15.30;;;;;;;5.27;80.33;103507.72;5055519;28;20397;-78
2022/01/24 01:30:46;;;;;;;24.38;14.23;;;;;;;5.30;80.86;103505.19;5054897;28;20029;-77
2022/01/24 01:55:26;;;;;;;28.05;14.68;;;;;;;5.46;79.64;103494.13;4955091;29;20078;-77
2022/01/24 01:57:52;;;;;;;28.65;15.02;;;;;;;5.43;78.90;103504.56;4954735;29;20043;-78
2022/01/24 02:00:18;;;;;;;25.80;15.18;;;;;;;5.44;79.68;103502.84;4954881;29;20031;-79
2022/01/24 02:02:43;;;;;;;26.00;14.93;;;;;;;5.40;80.61;103508.00;4951349;29;20034;-78
2022/01/24 02:05:09;;;;;;;25.33;14.05;;;;;;;5.43;80.84;103501.94;4954925;29;20134;-78
2022/01/24 02:07:47;;;;;;;28.48;14.50;;;;;;;5.37;81.71;103504.44;4955069;29;20134;-78
2022/01/24 02:10:12;;;;;;;29.05;15.13;;;;;;;5.37;82.29;103500.09;4954585;29;20614;-77
2022/01/24 02:12:37;;;;;;;27.70;15.15;;;;;;;5.32;82.00;103504.38;4951730;29;20046;-78
2022/01/24 02:15:03;;;;;;;28.13;15.57;;;;;;;5.30;81.31;103495.56;4953702;29;20467;-77
2022/01/24 02:17:41;;;;;;;29.20;15.73;;;;;;;5.34;80.24;103492.13;4964347;28;20101;-79
2022/01/24 02:20:27;;;;;;;26.75;15.60;;;;;;;5.30;80.19;103492.06;4974259;28;20034;-78
2022/01/24 02:25:37;;;;;;;28.08;15.15;;;;;;;5.25;81.35;103479.69;4993431;28;20088;-79
2022/01/24 02:28:04;;;;;;;30.00;15.55;;;;;;;5.21;83.42;103495.38;4992454;28;20095;-78
2022/01/24 02:30:57;;;;;;;28.35;15.15;;;;;;;5.22;83.85;103484.88;5002255;28;20050;-78
2022/01/24 02:33:24;;;;;;;29.13;15.57;;;;;;;5.24;82.96;103480.56;5014311;28;20045;-78
2022/01/24 02:35:50;;;;;;;25.60;14.70;;;;;;;5.32;83.22;103482.44;5014670;28;20471;-78
2022/01/24 02:38:37;;;;;;;25.33;14.30;;;;;;;5.30;83.84;103481.53;5014655;28;20532;-78
2022/01/24 02:49:20;;;;;;;26.13;15.40;;;;;;;5.11;86.76;103475.03;4995021;28;20049;-77
2022/01/24 02:51:46;;;;;;;26.38;14.95;;;;;;;5.10;86.28;103476.75;4994904;28;20030;-77
2022/01/24 02:54:31;;;;;;;27.38;15.73;;;;;;;5.12;86.73;103474.19;5005415;28;20049;-77
2022/01/24 02:56:56;;;;;;;28.90;16.08;;;;;;;5.09;85.76;103475.88;5014449;28;20041;-78
2022/01/24 02:59:22;;;;;;;30.67;17.42;;;;;;;5.07;85.20;103464.44;5014421;28;20716;-77
2022/01/24 03:01:47;;;;;;;30.52;16.88;;;;;;;5.10;85.65;103466.25;5013911;28;20413;-77
2022/01/24 03:04:14;;;;;;;29.88;16.98;;;;;;;5.13;84.82;103465.41;5005776;28;20117;-77
2022/01/24 03:06:40;;;;;;;28.90;16.75;;;;;;;5.14;85.63;103462.84;5009094;28;20024;-77
2022/01/24 03:09:07;;;;;;;28.33;15.75;;;;;;;5.13;86.63;103466.31;5014395;28;20101;-78
2022/01/24 03:12:26;;;;;;;29.45;16.77;;;;;;;5.08;87.27;103460.97;5014177;28;20041;-77
2022/01/24 03:14:24;;;;;;;33.50;16.92;;;;;;;5.07;88.15;103460.94;5008359;28;20088;-78
2022/01/24 03:16:50;;;;;;;29.25;15.85;;;;;;;5.04;88.69;103455.63;5013069;28;20057;-77
2022/01/24 03:19:16;;;;;;;30.88;16.80;;;;;;;5.05;88.56;103462.63;5013987;28;20050;-77
2022/01/24 03:21:43;;;;;;;33.80;16.33;;;;;;;5.04;88.40;103447.75;5013518;28;20466;-77
2022/01/24 03:24:09;;;;;;;32.40;17.55;;;;;;;5.04;88.30;103448.63;5013803;28;20030;-78
2022/01/24 03:26:34;;;;;;;29.80;16.23;;;;;;;5.06;87.09;103449.56;5013221;28;20363;-78
2022/01/24 03:28:59;;;;;;;29.88;16.15;;;;;;;5.05;85.25;103446.88;5012677;28;20033;-77
2022/01/24 03:31:25;;;;;;;30.00;16.80;;;;;;;5.09;85.73;103456.63;5013441;28;20034;-78
2022/01/24 03:33:50;;;;;;;30.17;16.65;;;;;;;5.06;85.63;103444.31;5013843;28;20033;-77
2022/01/24 03:36:16;;;;;;;29.63;17.13;;;;;;;5.05;85.63;103442.53;5013293;28;20025;-78
2022/01/24 03:38:41;;;;;;;31.33;18.40;;;;;;;5.06;82.96;103443.41;5013587;28;20030;-78
2022/01/24 03:41:07;;;;;;;30.40;17.23;;;;;;;5.08;82.16;103439.94;5013706;28;20476;-78
2022/01/24 03:43:33;;;;;;;28.67;15.93;;;;;;;5.16;83.17;103441.84;5013588;28;20482;-79
2022/01/24 03:48:42;;;;;;;29.60;17.33;;;;;;;5.13;84.06;103452.28;5052618;28;20071;-77
2022/01/24 03:51:09;;;;;;;29.17;16.88;;;;;;;5.17;84.23;103447.13;5053068;28;20108;-78
2022/01/24 03:53:35;;;;;;;33.20;17.40;;;;;;;5.10;84.61;103447.84;5053101;28;20025;-78
2022/01/24 03:56:00;;;;;;;30.88;16.77;;;;;;;5.08;84.90;103457.47;5053025;28;20029;-78
2022/01/24 03:58:26;;;;;;;28.45;16.23;;;;;;;5.09;84.23;103449.59;5052271;28;20036;-76
2022/01/24 04:00:51;;;;;;;29.33;17.20;;;;;;;5.09;84.42;103443.47;5052460;28;20036;-77
2022/01/24 04:03:16;;;;;;;30.42;17.48;;;;;;;5.04;84.55;103448.63;5052647;28;20053;-78
2022/01/24 04:05:43;;;;;;;28.67;16.65;;;;;;;5.01;85.58;103445.97;5052647;28;20036;-78
2022/01/24 04:08:08;;;;;;;32.28;17.52;;;;;;;4.97;85.97;103446.72;5052746;28;20017;-78
2022/01/24 04:10:41;;;;;;;28.85;16.98;;;;;;;4.93;85.26;103443.13;5034013;28;20139;-77
2022/01/24 04:13:21;;;;;;;29.85;17.38;;;;;;;4.92;84.73;103451.91;5052579;28;20385;-79
2022/01/24 04:16:10;;;;;;;30.38;17.67;;;;;;;4.97;85.18;103451.09;5052844;28;20021;-78
2022/01/24 04:23:58;;;;;;;29.35;17.15;;;;;;;4.90;85.61;103455.34;5052418;28;20495;-78
2022/01/24 04:26:23;;;;;;;30.38;16.42;;;;;;;4.94;83.58;103449.31;5052686;28;20036;-78
2022/01/24 04:28:49;;;;;;;30.35;17.23;;;;;;;4.96;82.30;103449.31;5052135;28;20021;-77
2022/01/24 04:31:15;;;;;;;35.22;16.55;;;;;;;4.99;82.67;103457.28;5052554;28;20461;-76
2022/01/24 04:33:40;;;;;;;29.25;16.60;;;;;;;5.00;83.04;103449.44;5052098;28;20082;-77
2022/01/24 04:36:06;;;;;;;31.15;16.90;;;;;;;5.08;83.32;103447.84;5052479;28;20393;-78
2022/01/24 04:38:32;;;;;;;33.17;17.05;;;;;;;5.09;82.15;103457.50;5052483;28;20043;-78
2022/01/24 04:41:01;;;;;;;28.63;16.23;;;;;;;5.08;82.62;103442.59;5051348;28;20037;-76
2022/01/24 04:43:51;;;;;;;32.13;17.33;;;;;;;5.08;83.05;103445.19;5051189;28;20465;-78
2022/01/24 04:56:37;;;;;;;32.53;17.17;;;;;;;4.98;84.73;103437.13;5052503;28;20039;-78
2022/01/24 04:59:02;;;;;;;27.77;16.25;;;;;;;5.08;83.46;103441.72;5052290;28;20031;-78
2022/01/24 05:01:28;;;;;;;28.30;16.10;;;;;;;4.99;84.42;103433.66;5051650;28;20033;-77
2022/01/24 05:03:53;;;;;;;28.15;16.52;;;;;;;4.93;84.11;103435.25;5051461;28;20463;-77
2022/01/24 05:06:19;;;;;;;30.73;17.27;;;;;;;4.91;84.23;103430.84;5052141;28;20047;-78
2022/01/24 05:08:44;;;;;;;30.52;16.67;;;;;;;4.91;83.88;103430.84;5052008;28;20033;-78
2022/01/24 05:11:13;;;;;;;30.15;16.98;;;;;;;4.90;83.44;103442.22;5051853;28;20064;-76
2022/01/24 05:24:31;;;;;;;34.85;18.90;;;;;;;4.96;84.86;103438.81;4970841;28;20037;-78
2022/01/24 05:26:57;;;;;;;36.72;19.50;;;;;;;4.93;84.81;103437.88;4971207;28;20186;-78
2022/01/24 05:29:22;;;;;;;36.10;19.00;;;;;;;4.94;86.33;103436.16;4970884;28;20098;-77
2022/01/24 05:31:48;;;;;;;37.42;20.50;;;;;;;4.92;86.85;103430.91;4970726;28;20034;-78
2022/01/24 05:34:14;;;;;;;34.33;20.00;;;;;;;4.90;86.88;103434.34;4970822;28;20035;-77
2022/01/24 05:36:39;;;;;;;37.25;20.20;;;;;;;4.91;87.36;103431.75;4971161;28;20490;-77
2022/01/24 05:39:05;;;;;;;38.20;20.50;;;;;;;4.91;86.96;103437.00;4971043;28;20390;-77
2022/01/24 05:41:31;;;;;;;39.33;21.88;;;;;;;4.88;87.39;103431.66;4970562;28;20130;-77
2022/01/24 05:43:56;;;;;;;40.63;21.92;;;;;;;4.87;87.80;103431.63;4970528;28;20034;-77
2022/01/24 05:46:21;;;;;;;45.30;22.83;;;;;;;4.85;88.25;103433.38;4970285;28;20102;-77
2022/01/24 05:48:47;;;;;;;41.33;22.35;;;;;;;4.86;87.39;103437.72;4970930;28;20471;-78
2022/01/24 05:51:12;;;;;;;41.65;22.65;;;;;;;4.83;87.83;103435.06;4970651;28;20039;-77
2022/01/24 05:53:38;;;;;;;45.22;24.60;;;;;;;4.82;87.64;103434.19;5037409;28;20040;-77
2022/01/24 05:56:03;;;;;;;44.85;23.73;;;;;;;4.81;87.94;103435.03;5054648;28;20492;-78
2022/01/24 05:58:28;;;;;;;39.22;21.48;;;;;;;4.87;85.68;103439.50;5055079;28;20029;-76
2022/01/24 06:00:54;;;;;;;44.63;22.75;;;;;;;4.85;84.42;103442.13;5055252;28;20396;-76
2022/01/24 06:03:20;;;;;;;44.03;23.92;;;;;;;4.84;84.16;103453.47;5036365;28;20389;-76
2022/01/24 06:05:46;;;;;;;44.47;24.20;;;;;;;4.84;83.95;103437.72;5057171;28;20061;-77
2022/01/24 06:08:11;;;;;;;44.92;24.23;;;;;;;4.85;84.10;103436.84;5054709;28;20052;-77
2022/01/24 06:10:37;;;;;;;41.92;23.70;;;;;;;4.85;84.20;103460.50;5053858;28;20461;-75
2022/01/24 06:13:03;;;;;;;45.30;25.02;;;;;;;4.84;84.24;103463.97;5035651;28;20044;-77
2022/01/24 06:15:28;;;;;;;45.97;24.02;;;;;;;4.84;85.00;103456.09;5035034;28;20021;-77
2022/01/24 06:17:53;;;;;;;47.25;25.50;;;;;;;4.83;84.39;103448.19;5044640;28;20033;-77
2022/01/24 06:20:19;;;;;;;43.10;24.25;;;;;;;4.85;83.86;103446.50;5054398;28;20029;-78
2022/01/24 06:22:44;;;;;;;44.58;23.08;;;;;;;4.90;82.99;103450.09;5054751;28;20025;-77
2022/01/24 06:25:10;;;;;;;44.53;23.55;;;;;;;4.88;82.00;103455.28;5036065;28;20047;-77
2022/01/24 06:27:36;;;;;;;44.90;24.52;;;;;;;4.86;83.63;103451.78;5054196;28;20025;-76
2022/01/24 06:30:01;;;;;;;47.35;24.30;;;;;;;4.83;83.72;103451.69;5054535;28;20122;-77
2022/01/24 06:32:27;;;;;;;46.03;23.77;;;;;;;4.84;84.24;103455.22;5054481;28;20082;-77
2022/01/24 06:34:52;;;;;;;46.03;24.40;;;;;;;4.81;84.30;103457.75;5054439;28;20090;-77
2022/01/24 06:37:17;;;;;;;46.22;24.08;;;;;;;4.79;84.14;103464.72;5054317;28;20391;-77
2022/01/24 06:39:43;;;;;;;48.78;24.40;;;;;;;4.78;83.97;103462.94;5035472;28;20036;-77
2022/01/24 06:42:14;;;;;;;49.55;23.85;;;;;;;4.79;83.33;103451.59;5054324;28;20120;-77
2022/01/24 06:44:41;;;;;;;46.55;23.88;;;;;;;4.78;83.59;103461.19;5045400;28;20037;-77
2022/01/24 06:47:07;;;;;;;50.60;25.58;;;;;;;4.78;84.63;103458.56;5054208;28;20049;-77
2022/01/24 06:49:32;;;;;;;52.65;26.83;;;;;;;4.77;84.14;103456.84;5053845;28;20036;-77
2022/01/24 06:51:58;;;;;;;50.92;25.95;;;;;;;4.76;84.53;103462.94;5053899;28;20381;-77
2022/01/24 06:54:24;;;;;;;52.92;26.48;;;;;;;4.73;85.01;103457.59;5053805;28;20025;-77
2022/01/24 06:56:49;;;;;;;51.45;25.50;;;;;;;4.73;85.35;103461.13;5053724;28;20108;-77
2022/01/24 06:59:14;;;;;;;55.38;27.40;;;;;;;4.70;85.93;103453.16;5053956;28;20029;-77
2022/01/24 07:01:40;;;;;;;50.13;26.92;;;;;;;4.71;85.64;103468.06;5054093;28;20040;-77
2022/01/24 07:04:05;;;;;;;53.72;26.23;;;;;;;4.71;86.15;103468.06;5053640;28;20056;-77
2022/01/24 07:06:30;;;;;;;53.83;27.50;;;;;;;4.70;86.44;103468.03;5053481;28;20025;-76
2022/01/24 07:08:56;;;;;;;56.95;29.00;;;;;;;4.68;87.16;103469.72;5053209;28;20025;-76
2022/01/24 07:11:21;;;;;;;59.25;26.85;;;;;;;4.65;87.22;103467.06;5053623;28;20048;-77
2022/01/24 07:13:46;;;;;;;52.92;26.60;;;;;;;4.64;86.88;103466.16;5053755;28;20461;-76
2022/01/24 07:16:13;;;;;;;54.67;27.42;;;;;;;4.63;87.54;103472.28;5053567;28;20033;-77
2022/01/24 07:21:22;;;;;;;56.78;27.63;;;;;;;4.60;87.65;103480.06;5053349;28;20052;-75
2022/01/24 07:23:47;;;;;;;54.10;26.95;;;;;;;4.61;86.79;103478.34;5053208;28;20021;-76
2022/01/24 07:26:12;;;;;;;59.35;28.33;;;;;;;4.60;86.64;103477.44;5053553;28;20025;-76
2022/01/24 07:28:38;;;;;;;57.25;28.48;;;;;;;4.58;87.01;103487.03;5052982;28;20047;-76
2022/01/24 07:31:03;;;;;;;55.38;27.50;;;;;;;4.55;86.83;103482.59;5053413;28;20216;-76
2022/01/24 07:33:29;;;;;;;49.83;24.58;;;;;;;4.55;86.63;103503.59;5035736;28;20032;-77
2022/01/24 07:35:54;;;;;;;51.38;27.02;;;;;;;4.54;84.60;103507.06;5052164;28;20033;-76
2022/01/24 07:38:20;;;;;;;51.08;27.10;;;;;;;4.58;84.28;103500.16;5039860;28;20397;-76
2022/01/24 07:40:48;;;;;;;53.47;28.05;;;;;;;4.58;84.12;103497.53;5055022;28;21619;-79
2022/01/24 07:43:14;;;;;;;55.45;28.05;;;;;;;4.54;84.73;103496.56;5048546;28;20021;-77
2022/01/24 07:45:42;;;;;;;60.15;28.52;;;;;;;4.57;84.68;103509.75;5052027;28;20052;-77
2022/01/24 07:48:07;;;;;;;56.92;28.58;;;;;;;4.58;84.62;103513.28;5052674;28;20032;-76
2022/01/24 07:50:36;;;;;;;57.55;26.90;;;;;;;4.58;85.07;103523.78;5053088;28;20032;-77
2022/01/24 07:53:03;;;;;;;53.90;27.38;;;;;;;4.57;85.38;103514.13;5053023;28;20029;-77
2022/01/24 07:55:30;;;;;;;55.42;28.40;;;;;;;4.57;84.79;103512.38;5052880;28;20036;-77
2022/01/24 07:57:55;;;;;;;54.85;28.38;;;;;;;4.57;85.04;103506.25;5052620;28;20033;-77
2022/01/24 08:00:20;;;;;;;57.65;29.02;;;;;;;4.56;85.77;103510.59;5052721;28;20060;-77
2022/01/24 08:02:46;;;;;;;53.65;27.42;;;;;;;4.55;85.11;103503.59;5052610;28;20044;-76
2022/01/24 08:05:12;;;;;;;58.55;27.70;;;;;;;4.57;85.41;103512.38;5052308;28;20021;-76
2022/01/24 08:07:38;;;;;;;51.78;26.95;;;;;;;4.59;85.23;103515.94;5035309;28;20025;-76
2022/01/24 08:10:05;;;;;;;54.75;27.45;;;;;;;4.61;85.08;103509.84;5049781;28;20052;-77
2022/01/24 08:12:31;;;;;;;59.30;28.60;;;;;;;4.58;85.61;103514.16;5052659;28;20033;-76
2022/01/24 08:14:59;;;;;;;54.92;26.05;;;;;;;4.59;85.03;103515.94;5051551;28;20496;-76
2022/01/24 08:17:25;;;;;;;52.38;27.15;;;;;;;4.61;84.85;103520.34;5053234;28;20037;-77
2022/01/24 08:19:50;;;;;;;54.35;26.58;;;;;;;4.67;83.65;103515.22;5050561;28;20059;-77
2022/01/24 08:22:16;;;;;;;54.38;27.65;;;;;;;4.67;82.93;103518.72;5052387;28;20048;-77
2022/01/24 08:24:41;;;;;;;51.53;26.55;;;;;;;4.68;83.57;103510.00;5052900;28;20465;-77
2022/01/24 08:27:06;;;;;;;55.33;27.45;;;;;;;4.68;83.50;103520.50;5044247;28;20461;-77
2022/01/24 08:29:32;;;;;;;52.55;27.15;;;;;;;4.69;84.61;103516.13;5035282;28;20041;-77
2022/01/24 08:31:57;;;;;;;57.38;27.70;;;;;;;4.68;83.63;103504.75;5052439;28;20040;-77
2022/01/24 08:34:22;;;;;;;51.75;26.10;;;;;;;4.71;82.57;103515.31;5052694;28;20488;-76
2022/01/24 08:36:48;;;;;;;53.50;26.52;;;;;;;4.71;83.08;103504.81;5052343;28;20024;-77
2022/01/24 08:39:13;;;;;;;44.97;24.00;;;;;;;4.78;82.72;103511.06;5051858;28;20496;-78
2022/01/24 08:47:17;;;;;;;48.50;24.92;;;;;;;4.80;81.64;103521.63;4932906;28;20125;-78
2022/01/24 08:49:42;;;;;;;50.42;24.65;;;;;;;4.79;82.08;103514.59;4933342;29;20039;-77
2022/01/24 08:52:07;;;;;;;48.95;24.63;;;;;;;4.79;82.45;103512.84;4928929;28;20071;-76
2022/01/24 08:54:33;;;;;;;51.42;25.50;;;;;;;4.81;82.39;103516.41;4932516;29;20162;-77
2022/01/24 08:56:58;;;;;;;47.92;24.70;;;;;;;4.86;82.37;103524.38;4932207;29;20140;-77
2022/01/24 08:59:24;;;;;;;42.08;22.23;;;;;;;4.90;80.54;103519.25;4932062;29;20054;-76
2022/01/24 09:01:50;;;;;;;46.35;22.77;;;;;;;4.87;79.46;103518.28;4921799;29;20171;-77
2022/01/24 09:04:15;;;;;;;40.33;22.10;;;;;;;4.87;79.08;103510.41;4930995;29;20118;-76
2022/01/24 09:06:40;;;;;;;40.97;21.35;;;;;;;4.91;78.23;103517.50;4932920;29;20035;-77
2022/01/24 09:09:06;;;;;;;44.00;23.35;;;;;;;4.92;79.19;103516.63;4932892;28;20047;-76
2022/01/24 09:11:34;;;;;;;36.97;18.92;;;;;;;4.86;77.26;103513.88;4930789;29;20075;-77
2022/01/24 09:14:02;;;;;;;36.13;18.98;;;;;;;4.85;76.68;103510.38;4931154;29;20107;-78
2022/01/24 09:16:27;;;;;;;40.08;20.67;;;;;;;4.91;77.37;103521.03;4924934;29;20508;-76
2022/01/24 09:18:54;;;;;;;42.95;21.95;;;;;;;4.97;78.11;103508.88;4914180;29;20140;-78
2022/01/24 09:21:20;;;;;;;41.83;21.95;;;;;;;5.05;77.55;103520.41;4938117;28;20065;-77
2022/01/24 09:23:45;;;;;;;36.42;19.92;;;;;;;5.03;77.18;103519.50;5005196;28;20045;-77
2022/01/24 09:26:11;;;;;;;39.35;21.92;;;;;;;5.04;77.79;103521.28;5049823;28;20108;-77
2022/01/24 09:28:36;;;;;;;42.00;22.95;;;;;;;5.03;78.12;103520.38;5036080;28;20037;-76
2022/01/24 09:31:02;;;;;;;37.15;21.70;;;;;;;5.04;77.83;103521.28;5051130;28;20025;-77
2022/01/24 09:33:27;;;;;;;36.85;19.30;;;;;;;5.13;77.09;103520.56;5055592;28;20024;-78
2022/01/24 09:35:58;;;;;;;37.42;21.30;;;;;;;5.17;76.34;103536.44;5055350;28;20081;-77
2022/01/24 09:38:24;;;;;;;36.75;20.23;;;;;;;5.21;76.42;103527.78;5055613;28;20025;-77
2022/01/24 09:40:49;;;;;;;36.30;19.15;;;;;;;5.15;75.73;103530.25;5055469;28;20067;-77
2022/01/24 09:43:15;;;;;;;34.90;19.25;;;;;;;5.06;75.84;103528.34;5046749;28;20029;-77
2022/01/24 09:45:40;;;;;;;34.17;18.55;;;;;;;5.06;75.87;103533.59;5055303;28;20040;-77
2022/01/24 09:48:05;;;;;;;38.55;20.35;;;;;;;5.05;76.33;103530.91;5049695;28;20033;-77
2022/01/24 09:50:31;;;;;;;34.58;19.70;;;;;;;5.04;75.64;103532.69;5044698;28;20036;-76
2022/01/24 09:52:57;;;;;;;37.10;20.73;;;;;;;5.06;76.53;103540.59;5048833;28;20024;-77
2022/01/24 09:55:24;;;;;;;34.20;19.52;;;;;;;5.07;76.69;103537.09;5052753;28;20033;-78
2022/01/24 09:57:50;;;;;;;34.38;18.55;;;;;;;5.12;76.14;103537.22;5054623;28;20036;-76
2022/01/24 10:00:19;;;;;;;31.05;17.95;;;;;;;5.14;74.60;103532.88;5055136;28;20036;-77
2022/01/24 10:02:46;;;;;;;33.10;18.63;;;;;;;5.17;75.08;103541.69;5053944;28;20041;-78
2022/01/24 10:05:17;;;;;;;34.38;18.63;;;;;;;5.13;74.72;103534.63;5051597;28;20029;-77
2022/01/24 10:07:49;;;;;;;37.03;20.60;;;;;;;5.16;75.34;103536.44;5050736;28;20111;-77
2022/01/24 10:10:16;;;;;;;43.40;22.27;;;;;;;5.19;75.59;103541.72;5054394;28;20472;-77
2022/01/24 10:17:55;;;;;;;41.05;22.15;;;;;;;5.30;74.67;103534.09;5047538;28;20071;-78
2022/01/24 10:20:26;;;;;;;41.80;22.90;;;;;;;5.32;75.65;103541.16;5046608;28;20045;-76
2022/01/24 10:23:06;;;;;;;44.00;23.13;;;;;;;5.34;75.59;103539.41;5049592;28;20036;-77
2022/01/24 10:25:32;;;;;;;44.47;23.52;;;;;;;5.39;74.54;103534.25;5049893;28;20100;-77
2022/01/24 10:28:03;;;;;;;41.35;22.42;;;;;;;5.41;75.25;103532.56;5054283;28;20103;-77
2022/01/24 10:30:32;;;;;;;42.13;21.70;;;;;;;5.37;75.67;103529.00;5054180;28;20029;-78
2022/01/24 10:33:01;;;;;;;45.33;23.42;;;;;;;5.41;75.50;103532.56;5054222;28;20032;-78
2022/01/24 10:35:38;;;;;;;45.08;23.42;;;;;;;5.45;75.41;103533.50;5053179;28;20376;-78
2022/01/24 10:38:44;;;;;;;46.35;23.23;;;;;;;5.43;74.49;103535.22;5056986;28;20326;-78
2022/01/24 10:44:08;;;;;;;48.38;24.42;;;;;;;5.49;74.65;103536.22;4984112;28;20479;-76
2022/01/24 10:46:34;;;;;;;45.20;24.08;;;;;;;5.49;75.70;103528.34;4992876;28;20125;-77
2022/01/24 10:49:09;;;;;;;47.28;24.27;;;;;;;5.49;75.62;103535.34;4992550;28;20113;-77
2022/01/24 10:51:46;;;;;;;43.85;24.73;;;;;;;5.55;75.00;103532.81;4992880;28;20042;-77
2022/01/24 10:54:17;;;;;;;46.05;23.90;;;;;;;5.60;75.20;103525.94;4992653;28;20422;-76
2022/01/24 10:56:44;;;;;;;46.10;25.55;;;;;;;5.60;74.49;103530.28;4992429;28;20066;-76
2022/01/24 10:59:09;;;;;;;45.63;24.73;;;;;;;5.67;74.69;103521.66;4992495;28;20030;-76
2022/01/24 11:01:35;;;;;;;47.10;24.17;;;;;;;5.70;73.69;103520.00;4992799;28;20101;-75
2022/01/24 11:04:03;;;;;;;43.75;23.38;;;;;;;5.79;72.94;103521.00;4992651;28;20026;-75
2022/01/24 11:06:30;;;;;;;48.92;24.10;;;;;;;5.79;73.61;103505.22;4992216;28;20069;-77
2022/01/24 11:09:21;;;;;;;46.30;24.65;;;;;;;5.81;74.27;103507.03;4992575;28;20073;-77
2022/01/24 11:11:48;;;;;;;42.65;23.20;;;;;;;5.81;73.06;103508.78;4991147;28;20070;-76
2022/01/24 11:14:16;;;;;;;45.00;24.27;;;;;;;5.84;72.99;103508.81;4991883;28;20034;-77
2022/01/24 11:16:42;;;;;;;44.50;24.08;;;;;;;5.76;72.89;103508.69;4991936;28;20118;-77
2022/01/24 11:19:15;;;;;;;52.10;25.17;;;;;;;5.71;73.19;103499.84;4991789;28;20038;-76
2022/01/24 11:21:43;;;;;;;46.58;24.17;;;;;;;5.63;72.04;103499.69;5051933;28;20099;-76
2022/01/24 11:24:09;;;;;;;44.53;24.45;;;;;;;5.66;72.86;103490.97;5045542;28;20037;-76
2022/01/24 11:26:36;;;;;;;48.33;23.80;;;;;;;5.78;73.14;103493.84;5032485;28;20041;-77
2022/01/24 11:29:03;;;;;;;44.85;23.52;;;;;;;5.87;72.98;103482.56;5053660;28;20093;-77
2022/01/24 11:31:38;;;;;;;47.80;25.60;;;;;;;5.90;73.35;103485.28;5053196;28;20188;-75
2022/01/24 11:34:33;;;;;;;45.47;23.92;;;;;;;5.90;74.37;103486.16;5034559;28;20366;-77
2022/01/24 11:36:58;;;;;;;49.08;25.27;;;;;;;5.99;74.22;103488.09;5053182;28;20477;-75
2022/01/24 11:39:24;;;;;;;46.38;24.48;;;;;;;6.05;74.35;103492.59;5053796;28;20032;-76
2022/01/24 11:41:49;;;;;;;42.53;23.83;;;;;;;6.05;72.19;103493.47;5045636;28;20028;-77
2022/01/24 11:44:17;;;;;;;45.58;25.00;;;;;;;6.07;72.54;103496.09;5041821;28;20520;-75
2022/01/24 11:46:54;;;;;;;50.13;25.08;;;;;;;6.01;72.14;103480.22;5052081;28;20112;-78
2022/01/24 11:49:25;;;;;;;47.05;24.73;;;;;;;5.98;72.69;103486.31;5050437;28;20029;-78
2022/01/24 11:52:06;;;;;;;46.60;24.33;;;;;;;5.93;72.77;103477.41;5044687;28;20385;-77
2022/01/24 11:54:56;;;;;;;48.03;24.88;;;;;;;6.04;73.01;103475.03;5050247;28;20795;-78
2022/01/24 11:57:24;;;;;;;46.25;24.55;;;;;;;5.97;72.96;103481.00;5046459;28;20028;-77
2022/01/24 12:00:09;;;;;;;44.90;24.55;;;;;;;5.87;73.17;103483.47;5045295;28;20033;-79
2022/01/24 12:02:55;;;;;;;46.10;25.45;;;;;;;5.87;72.87;103480.84;5035320;28;20461;-79
2022/01/24 12:05:26;;;;;;;50.53;25.23;;;;;;;5.86;73.18;103483.47;5052616;28;20025;-78
2022/01/24 12:07:57;;;;;;;45.17;24.27;;;;;;;5.84;73.90;103474.63;5052191;28;20033;-78
2022/01/24 12:10:27;;;;;;;49.80;26.15;;;;;;;5.85;73.44;103479.06;5052352;28;20504;-78
2022/01/24 12:13:18;;;;;;;48.30;25.10;;;;;;;5.78;73.72;103480.69;5052634;28;20033;-77
2022/01/24 12:15:43;;;;;;;51.33;26.60;;;;;;;5.80;73.47;103478.09;5052123;28;20033;-78
2022/01/24 12:18:33;;;;;;;49.90;26.05;;;;;;;5.72;73.33;103478.81;5052559;28;20443;-77
2022/01/24 12:21:03;;;;;;;48.55;25.33;;;;;;;5.72;73.25;103476.19;5045146;28;20041;-77
2022/01/24 12:23:47;;;;;;;46.70;25.20;;;;;;;5.77;72.72;103475.38;5052744;28;20025;-78
2022/01/24 12:26:13;;;;;;;48.72;25.38;;;;;;;5.64;73.07;103469.94;5052414;28;20025;-77
2022/01/24 12:28:41;;;;;;;45.33;24.63;;;;;;;5.60;73.84;103475.09;5050422;28;20036;-76
2022/01/24 12:31:10;;;;;;;44.63;24.05;;;;;;;5.55;73.93;103465.38;5047232;28;20111;-76
2022/01/24 12:33:43;;;;;;;45.85;24.90;;;;;;;5.51;73.67;103471.44;5034527;28;20026;-76
2022/01/24 12:36:14;;;;;;;47.63;25.30;;;;;;;5.59;74.46;103466.31;5031695;28;20037;-77
2022/01/24 12:38:42;;;;;;;50.80;26.13;;;;;;;5.56;75.17;103464.53;5038163;28;20124;-76
2022/01/24 12:41:38;;;;;;;46.72;24.15;;;;;;;5.73;74.78;103464.81;5052172;28;20116;-76
2022/01/24 12:46:32;;;;;;;47.10;24.45;;;;;;;5.79;74.52;103465.78;5051427;28;20048;-77
2022/01/24 12:49:07;;;;;;;43.47;23.60;;;;;;;5.81;74.74;103462.31;5051721;28;20396;-78
2022/01/24 12:51:37;;;;;;;47.38;24.92;;;;;;;5.74;74.03;103465.69;5052246;28;20037;-77
2022/01/24 12:54:04;;;;;;;44.92;23.90;;;;;;;5.78;73.88;103459.66;5062252;28;20051;-78
2022/01/24 12:56:33;;;;;;;41.53;23.85;;;;;;;5.78;73.28;103451.78;5072498;28;20483;-78
2022/01/24 12:58:58;;;;;;;42.05;24.30;;;;;;;5.69;73.79;103455.13;5057126;28;20101;-77
2022/01/24 13:01:24;;;;;;;48.15;24.95;;;;;;;5.67;74.02;103453.31;5061354;28;20104;-77
2022/01/24 13:03:55;;;;;;;45.25;24.25;;;;;;;5.65;75.11;103447.13;5055273;28;20032;-77
2022/01/24 13:06:21;;;;;;;48.53;24.45;;;;;;;5.68;75.14;103447.22;5056317;28;20411;-77
2022/01/24 13:09:01;;;;;;;42.90;23.52;;;;;;;5.72;75.12;103441.13;5055577;28;20035;-77
2022/01/24 13:11:29;;;;;;;45.63;24.73;;;;;;;5.67;75.72;103441.03;5048581;28;20127;-77